sensor_id;sensor_type;location;lat;lon;timestamp;pressure;altitude;pressure_sealevel;temperature;humidity
10909;BME280;5507;48.548;8.720;2023-01-08T00:01:03;71526.59;;;2.15;100.00
10909;BME280;5507;48.548;8.720;2023-01-08T00:03:28;71529.88;;;2.16;100.00
10909;BME280;5507;48.548;8.720;2023-01-08T00:05:53;71530.44;;;2.16;100.00
10909;BME280;5507;48.548;8.720;2023-01-08T00:08:19;71537.78;;;2.20;100.00
10909;BME280;5507;48.548;8.720;2023-01-08T00:10:44;71539.75;;;2.24;100.00
10909;BME280;5507;48.548;8.720;2023-01-08T00:13:10;71543.78;;;2.28;100.00
10909;BME280;5507;48.548;8.720;2023-01-08T00:15:35;71536.47;;;2.24;100.00
10909;BME280;5507;48.548;8.720;2023-01-08T00:18:00;71544.03;;;2.30;100.00
10909;BME280;5507;48.548;8.720;2023-01-08T00:20:27;71542.88;;;2.29;100.00
10909;BME280;5507;48.548;8.720;2023-01-08T00:22:52;71547.66;;;2.29;100.00
10909;BME280;5507;48.548;8.720;2023-01-08T00:25:18;71551.72;;;2.32;100.00
10909;BME280;5507;48.548;8.720;2023-01-08T00:27:44;71549.41;;;2.30;100.00
10909;BME280;5507;48.548;8.720;2023-01-08T00:30:10;71545.91;;;2.27;100.00
10909;BME280;5507;48.548;8.720;2023-01-08T00:32:35;71534.16;;;2.22;100.00
10909;BME280;5507;48.548;8.720;2023-01-08T00:35:01;71538.22;;;2.25;100.00
10909;BME280;5507;48.548;8.720;2023-01-08T00:37:27;71547.06;;;2.28;100.00
10909;BME280;5507;48.548;8.720;2023-01-08T00:39:52;71529.72;;;2.20;100.00
10909;BME280;5507;48.548;8.720;2023-01-08T00:42:18;71526.59;;;2.15;100.00
10909;BME280;5507;48.548;8.720;2023-01-08T00:44:43;71521.94;;;2.11;100.00
10909;BME280;5507;48.548;8.720;2023-01-08T00:47:08;71538.94;;;2.21;100.00
10909;BME280;5507;48.548;8.720;2023-01-08T00:49:34;71527.56;;;2.14;100.00
10909;BME280;5507;48.548;8.720;2023-01-08T00:51:59;71527.91;;;2.12;100.00
10909;BME280;5507;48.548;8.720;2023-01-08T00:54:24;71509.41;;;2.03;100.00
10909;BME280;5507;48.548;8.720;2023-01-08T00:56:49;71525.81;;;2.12;100.00
10909;BME280;5507;48.548;8.720;2023-01-08T00:59:15;71514.41;;;2.05;100.00
10909;BME280;5507;48.548;8.720;2023-01-08T01:01:40;71509.31;;;1.96;100.00
10909;BME280;5507;48.548;8.720;2023-01-08T01:04:06;71499.09;;;1.89;100.00
10909;BME280;5507;48.548;8.720;2023-01-08T01:06:31;71503.38;;;1.95;100.00
10909;BME280;5507;48.548;8.720;2023-01-08T01:08:56;71513.97;;;2.00;100.00
10909;BME280;5507;48.548;8.720;2023-01-08T01:11:25;71518.47;;;2.08;100.00
10909;BME280;5507;48.548;8.720;2023-01-08T01:13:51;71517.09;;;2.05;100.00
10909;BME280;5507;48.548;8.720;2023-01-08T01:16:18;71517.69;;;2.05;100.00
10909;BME280;5507;48.548;8.720;2023-01-08T01:18:44;71516.50;;;2.04;100.00
10909;BME280;5507;48.548;8.720;2023-01-08T01:21:20;71518.84;;;2.06;100.00
10909;BME280;5507;48.548;8.720;2023-01-08T01:23:45;71523.69;;;2.13;100.00
10909;BME280;5507;48.548;8.720;2023-01-08T01:26:18;71524.06;;;2.11;100.00
10909;BME280;5507;48.548;8.720;2023-01-08T01:28:46;71526.59;;;2.15;100.00
10909;BME280;5507;48.548;8.720;2023-01-08T01:31:11;71541.84;;;2.24;100.00
10909;BME280;5507;48.548;8.720;2023-01-08T01:33:39;71530.25;;;2.14;100.00
10909;BME280;5507;48.548;8.720;2023-01-08T01:36:05;71534.50;;;2.20;100.00
10909;BME280;5507;48.548;8.720;2023-01-08T01:38:30;71541.13;;;2.28;100.00
10909;BME280;5507;48.548;8.720;2023-01-08T01:40:56;71548.09;;;2.34;100.00
10909;BME280;5507;48.548;8.720;2023-01-08T01:43:41;71558.91;;;2.41;100.00
10909;BME280;5507;48.548;8.720;2023-01-08T01:46:18;71566.88;;;2.53;100.00
10909;BME280;5507;48.548;8.720;2023-01-08T01:48:47;71567.03;;;2.48;100.00
10909;BME280;5507;48.548;8.720;2023-01-08T01:51:13;71571.09;;;2.52;100.00
10909;BME280;5507;48.548;8.720;2023-01-08T01:53:39;71582.72;;;2.62;100.00
10909;BME280;5507;48.548;8.720;2023-01-08T01:56:07;71594.69;;;2.70;100.00
10909;BME280;5507;48.548;8.720;2023-01-08T01:58:32;71594.31;;;2.72;100.00
10909;BME280;5507;48.548;8.720;2023-01-08T02:01:02;71604.78;;;2.81;100.00
10909;BME280;5507;48.548;8.720;2023-01-08T02:03:31;71612.13;;;2.85;100.00
10909;BME280;5507;48.548;8.720;2023-01-08T02:06:55;71617.13;;;2.87;100.00
10909;BME280;5507;48.548;8.720;2023-01-08T02:12:05;71619.31;;;2.94;100.00
10909;BME280;5507;48.548;8.720;2023-01-08T02:17:16;71628.81;;;3.04;100.00
10909;BME280;5507;48.548;8.720;2023-01-08T02:19:49;71625.13;;;2.99;100.00
10909;BME280;5507;48.548;8.720;2023-01-08T02:22:30;71626.63;;;2.98;100.00
10909;BME280;5507;48.548;8.720;2023-01-08T02:28:10;71623.56;;;3.00;100.00
10909;BME280;5507;48.548;8.720;2023-01-08T02:30:36;71614.28;;;2.92;100.00
10909;BME280;5507;48.548;8.720;2023-01-08T02:33:02;71611.75;;;2.87;100.00
10909;BME280;5507;48.548;8.720;2023-01-08T02:35:36;71600.91;;;2.80;100.00
10909;BME280;5507;48.548;8.720;2023-01-08T02:38:03;71590.47;;;2.71;100.00
10909;BME280;5507;48.548;8.720;2023-01-08T02:40:33;71600.72;;;2.77;100.00
10909;BME280;5507;48.548;8.720;2023-01-08T02:43:17;71589.91;;;2.70;100.00
10909;BME280;5507;48.548;8.720;2023-01-08T02:45:50;71590.25;;;2.68;100.00
10909;BME280;5507;48.548;8.720;2023-01-08T02:50:53;71577.28;;;2.55;100.00
10909;BME280;5507;48.548;8.720;2023-01-08T02:53:30;71571.47;;;2.50;100.00
10909;BME280;5507;48.548;8.720;2023-01-08T02:56:00;71581.69;;;2.56;100.00
10909;BME280;5507;48.548;8.720;2023-01-08T02:58:30;71570.50;;;2.51;100.00
10909;BME280;5507;48.548;8.720;2023-01-08T03:00:57;71572.25;;;2.53;100.00
10909;BME280;5507;48.548;8.720;2023-01-08T03:03:27;71572.84;;;2.53;100.00
10909;BME280;5507;48.548;8.720;2023-01-08T03:06:01;71557.97;;;2.43;100.00
10909;BME280;5507;48.548;8.720;2023-01-08T03:08:28;71557.16;;;2.40;100.00
10909;BME280;5507;48.548;8.720;2023-01-08T03:11:05;71560.84;;;2.45;100.00
10909;BME280;5507;48.548;8.720;2023-01-08T03:13:37;71566.81;;;2.46;100.00
10909;BME280;5507;48.548;8.720;2023-01-08T03:16:08;71558.91;;;2.41;100.00
10909;BME280;5507;48.548;8.720;2023-01-08T03:18:39;71564.72;;;2.46;100.00
10909;BME280;5507;48.548;8.720;2023-01-08T03:21:07;71553.09;;;2.36;100.00
10909;BME280;5507;48.548;8.720;2023-01-08T03:23:34;71553.31;;;2.39;100.00
10909;BME280;5507;48.548;8.720;2023-01-08T03:26:03;71570.50;;;2.51;100.00
10909;BME280;5507;48.548;8.720;2023-01-08T03:28:35;71588.72;;;2.69;100.00
10909;BME280;5507;48.548;8.720;2023-01-08T03:31:02;71590.25;;;2.68;100.00
10909;BME280;5507;48.548;8.720;2023-01-08T03:33:29;71597.81;;;2.75;100.00
10909;BME280;5507;48.548;8.720;2023-01-08T03:35:58;71613.50;;;2.89;100.00
10909;BME280;5507;48.548;8.720;2023-01-08T03:38:39;71619.50;;;2.96;100.00
10909;BME280;5507;48.548;8.720;2023-01-08T03:41:12;71625.69;;;2.99;100.00
10909;BME280;5507;48.548;8.720;2023-01-08T03:43:39;71629.19;;;3.02;100.00
10909;BME280;5507;48.548;8.720;2023-01-08T03:46:08;71626.50;;;3.02;100.00
10909;BME280;5507;48.548;8.720;2023-01-08T03:48:36;71632.31;;;3.07;100.00
10909;BME280;5507;48.548;8.720;2023-01-08T03:51:02;71633.44;;;3.08;100.00
10909;BME280;5507;48.548;8.720;2023-01-08T03:53:28;71658.38;;;3.23;100.00
10909;BME280;5507;48.548;8.720;2023-01-08T03:55:54;71651.47;;;3.24;100.00
10909;BME280;5507;48.548;8.720;2023-01-08T03:58:20;71659.19;;;3.26;100.00
10909;BME280;5507;48.548;8.720;2023-01-08T04:00:45;71652.56;;;3.18;100.00
10909;BME280;5507;48.548;8.720;2023-01-08T04:03:11;71640.78;;;3.12;100.00
10909;BME280;5507;48.548;8.720;2023-01-08T04:05:36;71635.78;;;3.10;100.00
10909;BME280;5507;48.548;8.720;2023-01-08T04:08:01;71637.53;;;3.12;100.00
10909;BME280;5507;48.548;8.720;2023-01-08T04:10:26;71642.53;;;3.14;100.00
10909;BME280;5507;48.548;8.720;2023-01-08T04:12:52;71645.81;;;3.14;100.00
10909;BME280;5507;48.548;8.720;2023-01-08T04:15:19;71635.56;;;3.08;100.00
10909;BME280;5507;48.548;8.720;2023-01-08T04:17:44;71636.16;;;3.08;100.00
10909;BME280;5507;48.548;8.720;2023-01-08T04:20:09;71633.25;;;3.06;100.00
10909;BME280;5507;48.548;8.720;2023-01-08T04:22:35;71646.81;;;3.20;100.00
10909;BME280;5507;48.548;8.720;2023-01-08T04:25:00;71655.91;;;3.25;100.00
10909;BME280;5507;48.548;8.720;2023-01-08T04:27:26;71671.16;;;3.34;100.00
10909;BME280;5507;48.548;8.720;2023-01-08T04:29:51;71677.41;;;3.44;100.00
10909;BME280;5507;48.548;8.720;2023-01-08T04:32:16;71683.00;;;3.47;100.00
10909;BME280;5507;48.548;8.720;2023-01-08T04:34:42;71670.22;;;3.36;100.00
10909;BME280;5507;48.548;8.720;2023-01-08T04:37:07;71674.50;;;3.42;100.00
10909;BME280;5507;48.548;8.720;2023-01-08T04:39:32;71673.72;;;3.39;100.00
10909;BME280;5507;48.548;8.720;2023-01-08T04:41:58;71670.44;;;3.38;100.00
10909;BME280;5507;48.548;8.720;2023-01-08T04:44:23;71668.69;;;3.37;100.00
10909;BME280;5507;48.548;8.720;2023-01-08T04:46:48;71666.00;;;3.37;100.00
10909;BME280;5507;48.548;8.720;2023-01-08T04:49:14;71677.78;;;3.42;100.00
10909;BME280;5507;48.548;8.720;2023-01-08T04:51:39;71673.91;;;3.41;100.00
10909;BME280;5507;48.548;8.720;2023-01-08T04:54:05;71676.84;;;3.44;100.00
10909;BME280;5507;48.548;8.720;2023-01-08T04:56:30;71683.22;;;3.49;100.00
10909;BME280;5507;48.548;8.720;2023-01-08T04:58:57;71684.97;;;3.51;100.00
10909;BME280;5507;48.548;8.720;2023-01-08T05:01:24;71689.38;;;3.52;100.00
10909;BME280;5507;48.548;8.720;2023-01-08T05:04:09;71675.09;;;3.42;100.00
10909;BME280;5507;48.548;8.720;2023-01-08T05:06:35;71673.56;;;3.43;100.00
10909;BME280;5507;48.548;8.720;2023-01-08T05:09:00;71679.72;;;3.46;100.00
10909;BME280;5507;48.548;8.720;2023-01-08T05:11:26;71682.44;;;3.46;100.00
10909;BME280;5507;48.548;8.720;2023-01-08T05:13:52;71689.38;;;3.52;100.00
10909;BME280;5507;48.548;8.720;2023-01-08T05:16:17;71693.69;;;3.58;100.00
10909;BME280;5507;48.548;8.720;2023-01-08T05:18:43;71701.81;;;3.65;100.00
10909;BME280;5507;48.548;8.720;2023-01-08T05:21:09;71708.38;;;3.66;100.00
10909;BME280;5507;48.548;8.720;2023-01-08T05:23:35;71700.09;;;3.64;100.00
10909;BME280;5507;48.548;8.720;2023-01-08T05:26:02;71710.31;;;3.70;100.00
10909;BME280;5507;48.548;8.720;2023-01-08T05:28:27;71711.69;;;3.74;100.00
10909;BME280;5507;48.548;8.720;2023-01-08T05:30:53;71721.00;;;3.82;100.00
10909;BME280;5507;48.548;8.720;2023-01-08T05:33:19;71724.72;;;3.88;100.00
10909;BME280;5507;48.548;8.720;2023-01-08T05:35:44;71738.44;;;3.97;100.00
10909;BME280;5507;48.548;8.720;2023-01-08T05:38:09;71746.97;;;4.02;100.00
10909;BME280;5507;48.548;8.720;2023-01-08T05:40:35;71752.63;;;4.12;100.00
10909;BME280;5507;48.548;8.720;2023-01-08T05:43:00;71803.38;;;4.51;100.00
10909;BME280;5507;48.548;8.720;2023-01-08T05:45:26;71851.88;;;4.96;100.00
10909;BME280;5507;48.548;8.720;2023-01-08T05:47:52;71855.75;;;4.97;100.00
10909;BME280;5507;48.548;8.720;2023-01-08T05:50:18;71858.28;;;5.01;100.00
10909;BME280;5507;48.548;8.720;2023-01-08T05:52:43;71861.41;;;5.06;100.00
10909;BME280;5507;48.548;8.720;2023-01-08T05:55:09;71882.88;;;5.18;100.00
10909;BME280;5507;48.548;8.720;2023-01-08T05:57:35;71881.94;;;5.20;100.00
10909;BME280;5507;48.548;8.720;2023-01-08T06:00:00;71895.13;;;5.29;100.00
10909;BME280;5507;48.548;8.720;2023-01-08T06:02:25;71879.81;;;5.20;100.00
10909;BME280;5507;48.548;8.720;2023-01-08T06:04:50;71878.66;;;5.19;100.00
10909;BME280;5507;48.548;8.720;2023-01-08T06:07:16;71876.34;;;5.17;100.00
10909;BME280;5507;48.548;8.720;2023-01-08T06:09:41;71885.66;;;5.25;100.00
10909;BME280;5507;48.548;8.720;2023-01-08T06:12:06;71891.25;;;5.28;100.00
10909;BME280;5507;48.548;8.720;2023-01-08T06:14:32;71889.13;;;5.28;100.00
10909;BME280;5507;48.548;8.720;2023-01-08T06:16:57;71900.94;;;5.34;100.00
10909;BME280;5507;48.548;8.720;2023-01-08T06:19:22;71905.22;;;5.40;100.00
10909;BME280;5507;48.548;8.720;2023-01-08T06:21:48;71906.00;;;5.43;100.00
10909;BME280;5507;48.548;8.720;2023-01-08T06:24:13;71915.13;;;5.48;100.00
10909;BME280;5507;48.548;8.720;2023-01-08T06:26:38;71921.53;;;5.54;100.00
10909;BME280;5507;48.548;8.720;2023-01-08T06:29:04;71921.16;;;5.56;100.00
10909;BME280;5507;48.548;8.720;2023-01-08T06:31:29;71927.94;;;5.59;100.00
10909;BME280;5507;48.548;8.720;2023-01-08T06:33:54;71934.13;;;5.62;100.00
10909;BME280;5507;48.548;8.720;2023-01-08T06:36:21;71937.84;;;5.68;100.00
10909;BME280;5507;48.548;8.720;2023-01-08T06:38:46;71940.38;;;5.73;100.00
10909;BME280;5507;48.548;8.720;2023-01-08T06:41:11;71940.00;;;5.75;100.00
10909;BME280;5507;48.548;8.720;2023-01-08T06:43:37;71980.38;;;6.05;100.00
10909;BME280;5507;48.548;8.720;2023-01-08T06:46:04;71987.94;;;6.12;100.00
10909;BME280;5507;48.548;8.720;2023-01-08T06:48:30;72005.84;;;6.32;100.00
10909;BME280;5507;48.548;8.720;2023-01-08T06:50:58;72030.13;;;6.50;100.00
10909;BME280;5507;48.548;8.720;2023-01-08T06:53:23;72031.25;;;6.51;100.00
10909;BME280;5507;48.548;8.720;2023-01-08T06:55:49;72048.34;;;6.62;100.00
10909;BME280;5507;48.548;8.720;2023-01-08T06:58:20;72059.44;;;6.71;100.00
10909;BME280;5507;48.548;8.720;2023-01-08T07:00:45;72067.00;;;6.78;100.00
10909;BME280;5507;48.548;8.720;2023-01-08T07:03:10;72077.09;;;6.89;100.00
10909;BME280;5507;48.548;8.720;2023-01-08T07:05:35;72077.69;;;6.89;100.00
10909;BME280;5507;48.548;8.720;2023-01-08T07:08:01;72079.44;;;6.91;100.00
10909;BME280;5507;48.548;8.720;2023-01-08T07:10:26;72077.34;;;6.91;100.00
10909;BME280;5507;48.548;8.720;2023-01-08T07:12:52;72075.56;;;6.90;100.00
10909;BME280;5507;48.548;8.720;2023-01-08T07:15:17;72094.59;;;7.04;100.00
10909;BME280;5507;48.548;8.720;2023-01-08T07:17:42;72104.50;;;7.13;100.00
10909;BME280;5507;48.548;8.720;2023-01-08T07:20:08;72105.69;;;7.14;100.00
10909;BME280;5507;48.548;8.720;2023-01-08T07:22:33;72108.59;;;7.16;100.00
10909;BME280;5507;48.548;8.720;2023-01-08T07:24:59;72118.72;;;7.27;100.00
10909;BME280;5507;48.548;8.720;2023-01-08T07:27:24;72115.59;;;7.22;100.00
10909;BME280;5507;48.548;8.720;2023-01-08T07:29:49;72110.34;;;7.18;100.00
10909;BME280;5507;48.548;8.720;2023-01-08T07:32:14;72108.03;;;7.16;100.00
10909;BME280;5507;48.548;8.720;2023-01-08T07:34:40;72111.72;;;7.21;100.00
10909;BME280;5507;48.548;8.720;2023-01-08T07:37:05;72111.50;;;7.19;100.00
10909;BME280;5507;48.548;8.720;2023-01-08T07:39:30;72136.38;;;7.38;100.00
10909;BME280;5507;48.548;8.720;2023-01-08T07:41:56;72128.41;;;7.33;100.00
10909;BME280;5507;48.548;8.720;2023-01-08T07:44:22;72117.91;;;7.24;100.00
10909;BME280;5507;48.548;8.720;2023-01-08T07:46:47;72128.81;;;7.31;100.00
10909;BME280;5507;48.548;8.720;2023-01-08T07:49:12;72132.13;;;7.39;100.00
10909;BME280;5507;48.548;8.720;2023-01-08T07:51:37;72138.50;;;7.37;100.00
10909;BME280;5507;48.548;8.720;2023-01-08T07:54:03;72126.69;;;7.32;100.00
10909;BME280;5507;48.548;8.720;2023-01-08T07:56:28;72124.13;;;7.27;100.00
10909;BME280;5507;48.548;8.720;2023-01-08T07:58:53;72122.22;;;7.30;100.00
10909;BME280;5507;48.548;8.720;2023-01-08T08:01:19;72134.06;;;7.36;100.00
10909;BME280;5507;48.548;8.720;2023-01-08T08:03:44;72134.25;;;7.38;100.00
10909;BME280;5507;48.548;8.720;2023-01-08T08:06:09;72133.47;;;7.35;100.00
10909;BME280;5507;48.548;8.720;2023-01-08T08:08:35;72125.72;;;7.33;100.00
10909;BME280;5507;48.548;8.720;2023-01-08T08:11:00;72126.09;;;7.31;100.00
10909;BME280;5507;48.548;8.720;2023-01-08T08:13:26;72131.72;;;7.34;100.00
10909;BME280;5507;48.548;8.720;2023-01-08T08:15:51;72127.84;;;7.33;100.00
10909;BME280;5507;48.548;8.720;2023-01-08T08:18:17;72128.81;;;7.31;100.00
10909;BME280;5507;48.548;8.720;2023-01-08T08:20:42;72141.25;;;7.44;100.00
10909;BME280;5507;48.548;8.720;2023-01-08T08:23:12;72135.22;;;7.37;100.00
10909;BME280;5507;48.548;8.720;2023-01-08T08:25:38;72134.25;;;7.38;100.00
10909;BME280;5507;48.548;8.720;2023-01-08T08:28:05;72145.34;;;7.48;100.00
10909;BME280;5507;48.548;8.720;2023-01-08T08:30:32;72154.84;;;7.52;100.00
10909;BME280;5507;48.548;8.720;2023-01-08T08:33:00;72140.09;;;7.43;100.00
10909;BME280;5507;48.548;8.720;2023-01-08T08:35:26;72140.09;;;7.43;100.00
10909;BME280;5507;48.548;8.720;2023-01-08T08:37:53;72150.38;;;7.50;100.00
10909;BME280;5507;48.548;8.720;2023-01-08T08:40:18;72148.25;;;7.50;100.00
10909;BME280;5507;48.548;8.720;2023-01-08T08:42:43;72148.44;;;7.53;100.00
10909;BME280;5507;48.548;8.720;2023-01-08T08:45:09;72151.75;;;7.54;100.00
10909;BME280;5507;48.548;8.720;2023-01-08T08:47:34;72172.16;;;7.71;100.00
10909;BME280;5507;48.548;8.720;2023-01-08T08:50:00;72155.25;;;7.57;100.00
10909;BME280;5507;48.548;8.720;2023-01-08T08:52:26;72155.25;;;7.57;100.00
10909;BME280;5507;48.548;8.720;2023-01-08T08:54:51;72146.28;;;7.46;100.00
10909;BME280;5507;48.548;8.720;2023-01-08T08:57:16;72151.75;;;7.54;100.00
10909;BME280;5507;48.548;8.720;2023-01-08T08:59:42;72161.06;;;7.62;100.00
10909;BME280;5507;48.548;8.720;2023-01-08T09:02:09;72151.97;;;7.56;100.00
10909;BME280;5507;48.548;8.720;2023-01-08T09:04:35;72148.44;;;7.53;100.00
10909;BME280;5507;48.548;8.720;2023-01-08T09:07:00;72150.38;;;7.50;100.00
10909;BME280;5507;48.548;8.720;2023-01-08T09:09:25;72162.63;;;7.61;100.00
10909;BME280;5507;48.548;8.720;2023-01-08T09:11:51;72140.88;;;7.46;100.00
10909;BME280;5507;48.548;8.720;2023-01-08T09:14:17;72147.31;;;7.52;100.00
10909;BME280;5507;48.548;8.720;2023-01-08T09:16:42;72164.22;;;7.67;100.00
10909;BME280;5507;48.548;8.720;2023-01-08T09:19:08;72156.63;;;7.60;100.00
10909;BME280;5507;48.548;8.720;2023-01-08T09:21:35;72152.13;;;7.52;100.00
10909;BME280;5507;48.548;8.720;2023-01-08T09:24:00;72157.00;;;7.58;100.00
10909;BME280;5507;48.548;8.720;2023-01-08T09:26:25;72161.06;;;7.62;100.00
10909;BME280;5507;48.548;8.720;2023-01-08T09:28:53;72171.59;;;7.71;100.00
10909;BME280;5507;48.548;8.720;2023-01-08T09:31:18;72149.03;;;7.54;100.00
10909;BME280;5507;48.548;8.720;2023-01-08T09:33:46;72181.50;;;7.79;100.00
10909;BME280;5507;48.548;8.720;2023-01-08T09:36:11;72178.97;;;7.75;100.00
10909;BME280;5507;48.548;8.720;2023-01-08T09:38:36;72186.97;;;7.86;100.00
10909;BME280;5507;48.548;8.720;2023-01-08T09:41:05;72201.50;;;7.92;100.00
10909;BME280;5507;48.548;8.720;2023-01-08T09:43:34;72187.72;;;7.82;100.00
10909;BME280;5507;48.548;8.720;2023-01-08T09:46:02;72167.50;;;7.67;100.00
10909;BME280;5507;48.548;8.720;2023-01-08T09:48:36;72165.16;;;7.65;100.00
10909;BME280;5507;48.548;8.720;2023-01-08T09:51:02;72172.75;;;7.72;100.00
10909;BME280;5507;48.548;8.720;2023-01-08T09:53:27;72175.06;;;7.74;100.00
10909;BME280;5507;48.548;8.720;2023-01-08T09:56:01;72185.38;;;7.80;100.00
10909;BME280;5507;48.548;8.720;2023-01-08T10:01:13;72191.44;;;7.88;100.00
10909;BME280;5507;48.548;8.720;2023-01-08T10:03:43;72190.25;;;7.87;100.00
10909;BME280;5507;48.548;8.720;2023-01-08T10:06:14;72205.44;;;8.00;100.00
10909;BME280;5507;48.548;8.720;2023-01-08T10:08:40;72215.72;;;8.07;100.00
10909;BME280;5507;48.548;8.720;2023-01-08T10:11:06;72225.84;;;8.18;100.00
10909;BME280;5507;48.548;8.720;2023-01-08T10:13:34;72215.34;;;8.09;100.00
10909;BME280;5507;48.548;8.720;2023-01-08T10:16:05;72213.41;;;8.05;100.00
10909;BME280;5507;48.548;8.720;2023-01-08T10:18:31;72218.06;;;8.09;100.00
10909;BME280;5507;48.548;8.720;2023-01-08T10:20:57;72226.22;;;8.16;100.00
10909;BME280;5507;48.548;8.720;2023-01-08T10:23:22;72242.00;;;8.29;100.00
10909;BME280;5507;48.548;8.720;2023-01-08T10:25:52;72225.09;;;8.22;100.00
10909;BME280;5507;48.548;8.720;2023-01-08T10:28:27;72244.16;;;8.36;100.00
10909;BME280;5507;48.548;8.720;2023-01-08T10:30:57;72256.00;;;8.41;100.00
10909;BME280;5507;48.548;8.720;2023-01-08T10:33:29;72248.63;;;8.37;100.00
10909;BME280;5507;48.548;8.720;2023-01-08T10:36:03;72261.25;;;8.46;100.00
10909;BME280;5507;48.548;8.720;2023-01-08T10:38:33;72255.63;;;8.43;100.00
10909;BME280;5507;48.548;8.720;2023-01-08T10:41:02;72253.28;;;8.41;100.00
10909;BME280;5507;48.548;8.720;2023-01-08T10:43:32;72285.41;;;8.69;100.00
10909;BME280;5507;48.548;8.720;2023-01-08T10:46:01;72282.88;;;8.65;100.00
10909;BME280;5507;48.548;8.720;2023-01-08T10:48:38;72304.09;;;8.85;100.00
10909;BME280;5507;48.548;8.720;2023-01-08T10:51:17;72305.06;;;8.84;100.00
10909;BME280;5507;48.548;8.720;2023-01-08T10:53:43;72298.03;;;8.78;100.00
10909;BME280;5507;48.548;8.720;2023-01-08T10:56:28;72288.13;;;8.69;100.00
10909;BME280;5507;48.548;8.720;2023-01-08T10:58:55;72308.78;;;8.89;100.00
10909;BME280;5507;48.548;8.720;2023-01-08T11:01:28;72321.97;;;8.99;100.00
10909;BME280;5507;48.548;8.720;2023-01-08T11:03:59;72330.97;;;9.09;100.00
10909;BME280;5507;48.548;8.720;2023-01-08T11:06:30;72332.50;;;9.08;100.00
10909;BME280;5507;48.548;8.720;2023-01-08T11:08:59;72340.88;;;9.17;100.00
10909;BME280;5507;48.548;8.720;2023-01-08T11:11:36;72325.50;;;9.02;100.00
10909;BME280;5507;48.548;8.720;2023-01-08T11:14:19;72284.84;;;8.69;100.00
10909;BME280;5507;48.548;8.720;2023-01-08T11:16:46;72312.63;;;8.90;100.00
10909;BME280;5507;48.548;8.720;2023-01-08T11:19:15;72310.31;;;8.88;100.00
10909;BME280;5507;48.548;8.720;2023-01-08T11:21:41;72316.34;;;8.96;100.00
10909;BME280;5507;48.548;8.720;2023-01-08T11:24:17;72317.91;;;8.95;100.00
10909;BME280;5507;48.548;8.720;2023-01-08T11:26:47;72302.16;;;8.81;100.00
10909;BME280;5507;48.548;8.720;2023-01-08T11:29:17;72306.22;;;8.85;100.00
10909;BME280;5507;48.548;8.720;2023-01-08T11:31:48;72318.50;;;9.03;100.00
10909;BME280;5507;48.548;8.720;2023-01-08T11:36:58;72327.84;;;9.04;100.00
10909;BME280;5507;48.548;8.720;2023-01-08T11:39:26;72353.16;;;9.28;100.00
10909;BME280;5507;48.548;8.720;2023-01-08T11:42:04;72354.31;;;9.29;100.00
10909;BME280;5507;48.548;8.720;2023-01-08T11:45:04;72339.13;;;9.16;100.00
10909;BME280;5507;48.548;8.720;2023-01-08T11:50:38;72377.09;;;9.49;100.00
10909;BME280;5507;48.548;8.720;2023-01-08T11:53:16;72356.06;;;9.30;100.00
10909;BME280;5507;48.548;8.720;2023-01-08T12:01:56;72361.13;;;9.32;100.00
10909;BME280;5507;48.548;8.720;2023-01-08T12:09:42;72382.72;;;9.51;100.00
10909;BME280;5507;48.548;8.720;2023-01-08T12:12:24;72356.88;;;9.33;100.00
10909;BME280;5507;48.548;8.720;2023-01-08T12:15:02;72357.63;;;9.29;100.00
10909;BME280;5507;48.548;8.720;2023-01-08T12:20:35;72379.06;;;9.53;100.00
10909;BME280;5507;48.548;8.720;2023-01-08T12:23:31;72363.25;;;9.32;100.00
10909;BME280;5507;48.548;8.720;2023-01-08T12:26:17;72364.63;;;9.35;100.00
10909;BME280;5507;48.548;8.720;2023-01-08T12:37:25;72374.38;;;9.49;100.00
10909;BME280;5507;48.548;8.720;2023-01-08T12:40:02;72387.41;;;9.55;100.00
10909;BME280;5507;48.548;8.720;2023-01-08T12:42:33;72345.34;;;9.19;100.00
10909;BME280;5507;48.548;8.720;2023-01-08T12:45:02;72346.91;;;9.18;100.00
10909;BME280;5507;48.548;8.720;2023-01-08T12:47:31;72350.25;;;9.25;100.00
10909;BME280;5507;48.548;8.720;2023-01-08T12:50:02;72360.72;;;9.27;100.00
10909;BME280;5507;48.548;8.720;2023-01-08T12:55:34;72368.53;;;9.36;100.00
10909;BME280;5507;48.548;8.720;2023-01-08T12:58:19;72337.38;;;9.14;100.00
10909;BME280;5507;48.548;8.720;2023-01-08T13:00:55;72339.13;;;9.16;100.00
10909;BME280;5507;48.548;8.720;2023-01-08T13:03:26;72321.63;;;9.01;100.00
10909;BME280;5507;48.548;8.720;2023-01-08T13:06:04;72312.28;;;8.93;100.00
10909;BME280;5507;48.548;8.720;2023-01-08T13:08:32;72321.41;;;8.98;100.00
10909;BME280;5507;48.548;8.720;2023-01-08T13:10:59;72320.03;;;8.95;100.00
10909;BME280;5507;48.548;8.720;2023-01-08T13:13:29;72321.41;;;8.98;100.00
10909;BME280;5507;48.548;8.720;2023-01-08T13:18:30;72313.44;;;8.94;100.00
10909;BME280;5507;48.548;8.720;2023-01-08T13:20:56;72310.16;;;8.93;100.00
10909;BME280;5507;48.548;8.720;2023-01-08T13:23:28;72319.84;;;8.99;100.00
10909;BME280;5507;48.548;8.720;2023-01-08T13:25:56;72318.13;;;8.98;100.00
10909;BME280;5507;48.548;8.720;2023-01-08T13:28:41;72315.56;;;8.93;100.00
10909;BME280;5507;48.548;8.720;2023-01-08T13:31:24;72330.75;;;9.06;100.00
10909;BME280;5507;48.548;8.720;2023-01-08T13:33:51;72332.13;;;9.10;100.00
10909;BME280;5507;48.548;8.720;2023-01-08T13:41:43;72359.59;;;9.33;100.00
10909;BME280;5507;48.548;8.720;2023-01-08T13:44:40;72389.94;;;9.60;100.00
10909;BME280;5507;48.548;8.720;2023-01-08T13:47:18;72407.47;;;9.75;100.00
10909;BME280;5507;48.548;8.720;2023-01-08T13:49:47;72394.44;;;9.61;100.00
10909;BME280;5507;48.548;8.720;2023-01-08T13:52:47;72381.00;;;9.50;100.00
10909;BME280;5507;48.548;8.720;2023-01-08T13:55:26;72362.66;;;9.31;100.00
10909;BME280;5507;48.548;8.720;2023-01-08T13:57:55;72352.94;;;9.25;100.00
10909;BME280;5507;48.548;8.720;2023-01-08T14:02:55;72361.13;;;9.32;100.00
10909;BME280;5507;48.548;8.720;2023-01-08T14:05:30;72361.13;;;9.32;100.00
10909;BME280;5507;48.548;8.720;2023-01-08T14:07:56;72368.53;;;9.36;100.00
10909;BME280;5507;48.548;8.720;2023-01-08T14:10:23;72350.81;;;9.26;100.00
10909;BME280;5507;48.548;8.720;2023-01-08T14:12:49;72345.56;;;9.21;100.00